createdAt,value
2022-09-28T00:01:09.016Z,79.20
2022-09-28T00:03:36.421Z,79.50
2022-09-28T00:06:08.490Z,79.20
2022-09-28T00:08:36.713Z,79.40
2022-09-28T00:11:08.257Z,79.40
2022-09-28T00:13:35.556Z,79.20
2022-09-28T00:16:05.308Z,79.30
2022-09-28T00:18:32.537Z,79.30
2022-09-28T00:21:11.125Z,79.40
2022-09-28T00:24:00.758Z,79.50
2022-09-28T00:26:28.931Z,79.60
2022-09-28T00:28:58.534Z,79.80
2022-09-28T00:31:35.320Z,79.90
2022-09-28T00:34:02.434Z,79.90
2022-09-28T00:36:32.563Z,80.10
2022-09-28T00:39:05.981Z,80.20
2022-09-28T00:41:35.500Z,80.30
2022-09-28T00:44:26.974Z,80.40
2022-09-28T00:47:01.941Z,80.50
2022-09-28T00:49:33.413Z,80.70
2022-09-28T00:52:05.387Z,80.70
2022-09-28T00:54:32.366Z,80.80
2022-09-28T00:57:01.098Z,80.90
2022-09-28T00:59:28.265Z,80.90
2022-09-28T01:01:55.831Z,80.90
2022-09-28T01:04:26.901Z,80.70
2022-09-28T01:06:58.001Z,80.60
2022-09-28T01:09:28.804Z,80.70
2022-09-28T01:11:57.721Z,80.70
2022-09-28T01:14:25.723Z,80.60
2022-09-28T01:17:08.475Z,80.60
2022-09-28T01:20:05.910Z,80.70
2022-09-28T01:22:34.254Z,80.70
2022-09-28T01:25:42.068Z,80.80
2022-09-28T01:28:16.188Z,80.70
2022-09-28T01:31:07.530Z,80.80
2022-09-28T01:33:50.096Z,80.90
2022-09-28T01:36:43.646Z,80.80
2022-09-28T01:39:18.190Z,80.70
2022-09-28T01:41:49.197Z,80.60
2022-09-28T01:44:19.797Z,80.60
2022-09-28T01:46:49.740Z,80.70
2022-09-28T01:49:42.767Z,80.70
2022-09-28T01:52:28.006Z,80.80
2022-09-28T01:55:02.328Z,80.80
2022-09-28T01:58:00.419Z,81.00
2022-09-28T02:00:28.187Z,81.10
2022-09-28T02:03:18.606Z,81.10
2022-09-28T02:06:00.099Z,81.30
2022-09-28T02:08:33.611Z,81.30
2022-09-28T02:11:11.209Z,81.40
2022-09-28T02:13:55.125Z,81.40
2022-09-28T02:16:29.829Z,81.60
2022-09-28T02:18:57.553Z,81.70
2022-09-28T02:21:31.887Z,81.70
2022-09-28T02:24:03.712Z,81.80
2022-09-28T02:26:38.713Z,81.80
2022-09-28T02:29:05.899Z,81.90
2022-09-28T02:31:32.860Z,82.00
2022-09-28T02:34:02.112Z,82.60
2022-09-28T02:36:29.706Z,82.20
2022-09-28T02:38:58.341Z,82.30
2022-09-28T02:41:31.946Z,82.50
2022-09-28T02:44:19.733Z,82.50
2022-09-28T02:46:55.311Z,82.70
2022-09-28T02:49:29.956Z,82.70
2022-09-28T02:52:24.989Z,82.70
2022-09-28T02:55:10.971Z,82.80
2022-09-28T02:57:49.571Z,82.70
2022-09-28T03:00:22.753Z,82.90
2022-09-28T03:03:04.114Z,82.90
2022-09-28T03:06:03.292Z,83.00
2022-09-28T03:08:42.769Z,83.00
2022-09-28T03:11:24.964Z,83.20
2022-09-28T03:13:54.581Z,83.30
2022-09-28T03:16:31.800Z,83.20
2022-09-28T03:18:58.629Z,83.20
2022-09-28T03:21:25.376Z,83.20
2022-09-28T03:23:52.133Z,83.20
2022-09-28T03:26:19.682Z,83.20
2022-09-28T03:28:46.514Z,83.30
2022-09-28T03:31:21.083Z,83.30
2022-09-28T03:33:51.578Z,83.40
2022-09-28T03:36:18.293Z,83.40
2022-09-28T03:38:45.047Z,83.60
2022-09-28T03:41:11.813Z,83.60
2022-09-28T03:43:41.617Z,83.60
2022-09-28T03:46:08.845Z,83.60
2022-09-28T03:48:43.524Z,83.60
2022-09-28T03:51:12.417Z,83.60
2022-09-28T03:53:43.962Z,83.60
2022-09-28T03:56:16.105Z,83.70
2022-09-28T03:58:43.209Z,83.70
2022-09-28T04:01:16.948Z,83.70
2022-09-28T04:03:46.111Z,83.60
2022-09-28T04:06:13.357Z,83.70
2022-09-28T04:08:40.536Z,83.70
2022-09-28T04:11:07.252Z,83.80
2022-09-28T04:13:35.386Z,83.70
2022-09-28T04:16:05.839Z,83.80
2022-09-28T04:18:39.925Z,83.70
2022-09-28T04:21:32.147Z,83.60
2022-09-28T04:24:13.254Z,84.20
2022-09-28T04:26:40.356Z,83.60
2022-09-28T04:29:16.969Z,83.70
2022-09-28T04:31:51.522Z,83.60
2022-09-28T04:34:23.222Z,83.60
2022-09-28T04:36:50.489Z,83.60
2022-09-28T04:39:19.259Z,83.60
2022-09-28T04:41:51.722Z,83.60
2022-09-28T04:44:23.358Z,83.60
2022-09-28T04:46:56.196Z,83.50
2022-09-28T04:49:28.680Z,83.50
2022-09-28T04:51:58.114Z,83.50
2022-09-28T04:54:24.844Z,83.60
2022-09-28T04:56:54.136Z,83.60
2022-09-28T04:59:20.897Z,83.60
2022-09-28T05:01:50.323Z,83.60
2022-09-28T05:04:40.912Z,83.60
2022-09-28T05:07:29.283Z,83.60
2022-09-28T05:09:57.271Z,83.60
2022-09-28T05:12:24.410Z,83.60
2022-09-28T05:14:51.180Z,83.60
2022-09-28T05:17:18.388Z,83.60
2022-09-28T05:20:06.778Z,83.60
2022-09-28T05:22:34.164Z,83.60
2022-09-28T05:25:03.106Z,83.60
2022-09-28T05:27:36.037Z,83.60
2022-09-28T05:30:16.693Z,83.60
2022-09-28T05:33:04.339Z,83.50
2022-09-28T05:35:53.335Z,83.60
2022-09-28T05:38:24.153Z,83.60
2022-09-28T05:40:53.453Z,83.40
2022-09-28T05:43:24.009Z,83.20
2022-09-28T05:45:55.379Z,83.20
2022-09-28T05:48:25.537Z,83.20
2022-09-28T05:50:53.086Z,83.10
2022-09-28T05:53:20.912Z,83.10
2022-09-28T05:55:50.477Z,82.90
2022-09-28T05:58:19.775Z,83.10
2022-09-28T06:00:46.577Z,83.30
2022-09-28T06:03:18.029Z,83.40
2022-09-28T06:05:45.451Z,83.30
2022-09-28T06:08:12.177Z,84.00
2022-09-28T06:10:43.404Z,83.30
2022-09-28T06:13:12.965Z,83.30
2022-09-28T06:15:46.267Z,83.30
2022-09-28T06:18:15.410Z,83.30
2022-09-28T06:21:01.245Z,83.30
2022-09-28T06:23:33.937Z,83.30
2022-09-28T06:26:00.806Z,83.40
2022-09-28T06:28:27.956Z,83.60
2022-09-28T06:30:55.650Z,83.80
2022-09-28T06:33:22.392Z,83.90
2022-09-28T06:35:49.085Z,84.20
2022-09-28T06:38:16.062Z,84.30
2022-09-28T06:40:42.934Z,84.40
2022-09-28T06:43:12.583Z,84.50
2022-09-28T06:45:58.185Z,84.60
2022-09-28T06:48:44.951Z,84.60
2022-09-28T06:51:17.805Z,84.60
2022-09-28T06:53:58.915Z,84.60
2022-09-28T06:56:48.653Z,84.40
2022-09-28T06:59:21.072Z,84.30
2022-09-28T07:01:47.858Z,84.00
2022-09-28T07:04:42.723Z,83.70
2022-09-28T07:07:31.254Z,83.30
2022-09-28T07:10:11.301Z,83.10
2022-09-28T07:13:04.776Z,83.20
2022-09-28T07:15:42.368Z,82.80
2022-09-28T07:18:14.466Z,82.10
2022-09-28T07:20:52.948Z,80.90
2022-09-28T07:23:21.252Z,79.60
2022-09-28T07:26:18.361Z,78.90
2022-09-28T07:29:10.322Z,77.30
2022-09-28T07:31:59.640Z,75.60
2022-09-28T07:34:29.257Z,75.80
2022-09-28T07:37:13.257Z,74.80
2022-09-28T07:39:58.911Z,74.80
2022-09-28T07:42:30.008Z,72.60
2022-09-28T07:44:57.872Z,72.50
2022-09-28T07:47:30.824Z,73.30
2022-09-28T07:50:18.000Z,73.70
2022-09-28T07:53:17.968Z,73.20
2022-09-28T07:56:08.961Z,71.70
2022-09-28T07:58:49.562Z,71.60
2022-09-28T08:01:30.478Z,69.30
2022-09-28T08:03:58.394Z,69.20
2022-09-28T08:06:25.919Z,70.20
2022-09-28T08:08:56.132Z,69.30
2022-09-28T08:11:29.772Z,69.00
2022-09-28T08:14:14.967Z,69.10
2022-09-28T08:17:05.595Z,69.50
2022-09-28T08:19:59.607Z,68.80
2022-09-28T08:22:32.207Z,67.70
2022-09-28T08:24:59.996Z,68.60
2022-09-28T08:27:26.827Z,69.30
2022-09-28T08:29:54.107Z,68.40
2022-09-28T08:32:45.820Z,68.70
2022-09-28T08:35:37.852Z,68.30
2022-09-28T08:38:39.893Z,66.70
2022-09-28T08:42:12.235Z,65.80
2022-09-28T08:45:08.464Z,66.50
2022-09-28T08:49:01.165Z,64.50
2022-09-28T08:52:17.087Z,67.00
2022-09-28T08:55:10.315Z,64.30
2022-09-28T08:57:45.173Z,64.50
2022-09-28T09:00:21.200Z,63.20
2022-09-28T09:02:48.728Z,61.60
2022-09-28T09:05:27.630Z,58.40
2022-09-28T09:08:35.267Z,60.00
2022-09-28T09:11:05.691Z,57.70
2022-09-28T09:14:14.596Z,57.70
2022-09-28T09:17:07.186Z,56.60
2022-09-28T09:19:42.445Z,56.10
2022-09-28T09:22:55.726Z,56.00
2022-09-28T09:25:40.836Z,55.60
2022-09-28T09:28:40.202Z,57.20
2022-09-28T09:31:09.242Z,57.70
2022-09-28T09:33:47.447Z,58.60
2022-09-28T09:37:17.917Z,58.10
2022-09-28T09:40:41.879Z,57.50
2022-09-28T09:43:46.625Z,55.30
2022-09-28T09:47:07.745Z,55.50
2022-09-28T09:50:14.992Z,57.30
2022-09-28T09:52:57.235Z,56.50
2022-09-28T09:55:40.091Z,56.90
2022-09-28T09:58:40.865Z,58.00
2022-09-28T10:01:29.817Z,57.10
2022-09-28T10:04:32.577Z,58.00
2022-09-28T10:07:15.698Z,56.20
2022-09-28T10:09:48.196Z,55.60
2022-09-28T10:12:26.288Z,55.40
2022-09-28T10:14:56.043Z,55.40
2022-09-28T10:17:27.324Z,56.40
2022-09-28T10:20:25.479Z,55.80
2022-09-28T10:23:05.039Z,55.40
2022-09-28T10:25:37.259Z,53.90
2022-09-28T10:28:06.692Z,53.20
2022-09-28T10:30:44.429Z,53.70
2022-09-28T10:33:33.383Z,52.60
2022-09-28T10:36:07.334Z,53.50
2022-09-28T10:38:36.225Z,51.40
2022-09-28T10:41:16.540Z,51.40
2022-09-28T10:44:06.956Z,50.70
2022-09-28T10:47:00.870Z,49.90
2022-09-28T10:49:46.800Z,49.90
2022-09-28T10:52:44.858Z,50.60
2022-09-28T10:55:32.264Z,50.70
2022-09-28T10:58:02.465Z,51.50
2022-09-28T11:00:42.302Z,53.10
2022-09-28T11:03:28.848Z,54.40
2022-09-28T11:06:06.170Z,54.30
2022-09-28T11:08:45.689Z,52.20
2022-09-28T11:11:21.696Z,52.30
2022-09-28T11:14:01.043Z,49.90
2022-09-28T11:16:34.511Z,50.00
2022-09-28T11:19:29.565Z,50.00
2022-09-28T11:21:58.624Z,49.00
2022-09-28T11:24:34.173Z,50.10
2022-09-28T11:27:04.109Z,50.90
2022-09-28T11:29:38.157Z,48.60
2022-09-28T11:32:45.261Z,49.90
2022-09-28T11:35:45.104Z,48.90
2022-09-28T11:38:37.992Z,48.90
2022-09-28T11:41:54.213Z,50.30
2022-09-28T11:44:41.188Z,48.80
2022-09-28T11:47:26.476Z,48.20
2022-09-28T11:50:25.480Z,49.50
2022-09-28T11:53:23.287Z,47.80
2022-09-28T11:56:07.942Z,45.10
2022-09-28T11:58:41.367Z,45.20
2022-09-28T12:01:18.786Z,43.50
2022-09-28T12:04:52.359Z,41.70
2022-09-28T12:07:47.892Z,40.10
2022-09-28T12:10:44.668Z,41.30
2022-09-28T12:13:20.111Z,43.20
2022-09-28T12:16:27.602Z,44.90
2022-09-28T12:18:53.087Z,45.10
2022-09-28T12:21:19.855Z,45.80
2022-09-28T12:23:49.443Z,47.20
2022-09-28T12:26:44.022Z,47.20
2022-09-28T12:29:15.606Z,46.70
2022-09-28T12:32:09.774Z,47.20
2022-09-28T12:34:36.478Z,47.50
2022-09-28T12:37:06.791Z,46.30
2022-09-28T12:39:56.891Z,47.00
2022-09-28T12:42:46.141Z,47.50
2022-09-28T12:45:42.864Z,47.50
2022-09-28T12:48:31.184Z,47.50
2022-09-28T12:51:26.081Z,47.70
2022-09-28T12:54:19.110Z,47.80
2022-09-28T12:57:10.996Z,47.50
2022-09-28T13:00:08.326Z,47.80
2022-09-28T13:03:07.740Z,46.80
2022-09-28T13:05:37.533Z,46.30
2022-09-28T13:08:21.191Z,46.80
2022-09-28T13:11:07.544Z,47.60
2022-09-28T13:13:54.255Z,49.40
2022-09-28T13:16:47.458Z,51.60
2022-09-28T13:19:32.435Z,53.30
2022-09-28T13:22:23.534Z,55.50
2022-09-28T13:24:53.684Z,56.50
2022-09-28T13:27:28.844Z,58.00
2022-09-28T13:30:01.112Z,57.80
2022-09-28T13:32:31.468Z,56.80
2022-09-28T13:35:02.004Z,55.80
2022-09-28T13:37:29.707Z,56.10
2022-09-28T13:40:05.905Z,55.80
2022-09-28T13:42:44.915Z,55.20
2022-09-28T13:45:22.601Z,55.20
2022-09-28T13:48:15.925Z,53.50
2022-09-28T13:50:51.505Z,53.70
2022-09-28T13:53:32.548Z,53.90
2022-09-28T13:56:25.009Z,53.60
2022-09-28T13:58:58.897Z,54.10
2022-09-28T14:01:39.117Z,54.00
2022-09-28T14:04:22.440Z,53.50
2022-09-28T14:07:15.361Z,52.50
2022-09-28T14:09:51.200Z,52.70
2022-09-28T14:12:29.545Z,52.00
2022-09-28T14:14:59.969Z,51.90
2022-09-28T14:17:30.280Z,50.30
2022-09-28T14:20:12.817Z,50.40
2022-09-28T14:23:00.804Z,50.10
2022-09-28T14:25:31.502Z,50.80
2022-09-28T14:28:18.813Z,51.30
2022-09-28T14:30:48.153Z,49.00
2022-09-28T14:33:19.109Z,49.00
2022-09-28T14:35:55.548Z,48.70
2022-09-28T14:38:51.861Z,49.40
2022-09-28T14:41:27.745Z,49.50
2022-09-28T14:43:57.670Z,50.40
2022-09-28T14:46:30.277Z,50.70
2022-09-28T14:49:05.532Z,50.20
2022-09-28T14:51:35.383Z,49.90
2022-09-28T14:54:08.860Z,49.60
2022-09-28T14:56:45.532Z,49.70
2022-09-28T14:59:19.603Z,49.60
2022-09-28T15:01:52.317Z,49.90
2022-09-28T15:04:20.635Z,50.10
2022-09-28T15:06:50.007Z,49.00
2022-09-28T15:09:48.015Z,49.70
2022-09-28T15:12:47.129Z,49.20
2022-09-28T15:15:31.199Z,49.20
2022-09-28T15:18:18.921Z,49.60
2022-09-28T15:20:50.610Z,49.50
2022-09-28T15:23:39.109Z,50.30
2022-09-28T15:26:09.458Z,49.60
2022-09-28T15:28:43.754Z,50.70
2022-09-28T15:31:18.686Z,50.40
2022-09-28T15:34:04.222Z,50.60
2022-09-28T15:36:42.469Z,50.40
2022-09-28T15:39:16.675Z,50.90
2022-09-28T15:41:45.572Z,51.10
2022-09-28T15:44:23.486Z,51.90
2022-09-28T15:46:52.051Z,51.40
2022-09-28T15:49:38.774Z,52.20
2022-09-28T15:52:27.795Z,52.20
2022-09-28T15:54:54.994Z,52.50
2022-09-28T15:57:37.204Z,53.30
2022-09-28T16:00:26.437Z,53.40
2022-09-28T16:03:00.406Z,54.40
2022-09-28T16:05:51.001Z,53.60
2022-09-28T16:08:42.002Z,54.30
2022-09-28T16:11:17.688Z,54.20
2022-09-28T16:13:55.365Z,54.30
2022-09-28T16:16:46.484Z,55.00
2022-09-28T16:19:24.524Z,54.40
2022-09-28T16:21:59.398Z,54.40
2022-09-28T16:24:35.402Z,55.00
2022-09-28T16:27:29.451Z,55.40
2022-09-28T16:30:11.840Z,56.20
2022-09-28T16:33:02.328Z,56.40
2022-09-28T16:35:32.018Z,57.50
2022-09-28T16:37:58.855Z,58.20
2022-09-28T16:40:27.359Z,59.10
2022-09-28T16:43:03.416Z,59.50
2022-09-28T16:45:31.350Z,60.00
2022-09-28T16:48:01.500Z,60.10
2022-09-28T16:50:28.329Z,60.30
2022-09-28T16:53:31.242Z,60.70
2022-09-28T16:55:59.030Z,61.10
2022-09-28T16:58:25.857Z,61.40
2022-09-28T17:00:54.541Z,61.60
2022-09-28T17:03:23.361Z,60.90
2022-09-28T17:05:51.252Z,60.90
2022-09-28T17:08:22.176Z,60.60
2022-09-28T17:11:15.725Z,60.90
2022-09-28T17:13:42.306Z,60.70
2022-09-28T17:16:12.052Z,60.80
2022-09-28T17:18:39.958Z,61.20
2022-09-28T17:21:16.848Z,61.10
2022-09-28T17:23:45.846Z,61.30
2022-09-28T17:26:24.104Z,61.30
2022-09-28T17:28:53.602Z,61.00
2022-09-28T17:31:20.398Z,61.30
2022-09-28T17:33:47.234Z,61.50
2022-09-28T17:36:18.913Z,61.40
2022-09-28T17:38:49.346Z,61.60
2022-09-28T17:41:20.639Z,61.80
2022-09-28T17:43:50.497Z,61.90
2022-09-28T17:46:32.714Z,62.40
2022-09-28T17:49:01.626Z,62.50
2022-09-28T17:51:30.308Z,62.60
2022-09-28T17:53:57.680Z,63.00
2022-09-28T17:56:29.657Z,63.20
2022-09-28T17:59:04.858Z,63.40
2022-09-28T18:01:35.367Z,63.70
2022-09-28T18:04:03.726Z,64.40
2022-09-28T18:06:36.994Z,64.40
2022-09-28T18:09:06.222Z,64.10
2022-09-28T18:11:33.861Z,64.20
2022-09-28T18:14:00.845Z,64.20
2022-09-28T18:16:30.055Z,64.60
2022-09-28T18:18:59.401Z,65.20
2022-09-28T18:21:26.102Z,64.80
2022-09-28T18:23:52.885Z,64.50
2022-09-28T18:26:21.845Z,64.40
2022-09-28T18:28:48.628Z,64.50
2022-09-28T18:31:16.092Z,64.80
2022-09-28T18:33:52.288Z,65.80
2022-09-28T18:36:19.044Z,66.00
2022-09-28T18:38:48.306Z,66.20
2022-09-28T18:41:16.345Z,66.70
2022-09-28T18:43:50.741Z,67.20
2022-09-28T18:46:18.344Z,67.40
2022-09-28T18:48:48.233Z,67.80
2022-09-28T18:51:15.223Z,67.70
2022-09-28T18:53:44.113Z,68.00
2022-09-28T18:56:14.424Z,68.30
2022-09-28T18:58:42.420Z,68.60
2022-09-28T19:01:30.803Z,68.80
2022-09-28T19:04:02.611Z,68.90
2022-09-28T19:06:30.073Z,69.10
2022-09-28T19:08:57.060Z,69.20
2022-09-28T19:11:24.991Z,69.00
2022-09-28T19:13:53.468Z,69.10
2022-09-28T19:16:24.019Z,69.00
2022-09-28T19:18:52.350Z,68.80
2022-09-28T19:21:22.111Z,68.80
2022-09-28T19:23:49.986Z,68.90
2022-09-28T19:26:20.780Z,68.90
2022-09-28T19:28:48.741Z,68.60
2022-09-28T19:31:15.852Z,69.10
2022-09-28T19:33:42.992Z,69.10
2022-09-28T19:36:14.237Z,69.30
2022-09-28T19:38:41.356Z,69.80
2022-09-28T19:41:13.476Z,70.20
2022-09-28T19:43:43.609Z,70.70
2022-09-28T19:46:10.742Z,71.40
2022-09-28T19:48:37.504Z,72.00
2022-09-28T19:51:06.153Z,72.40
2022-09-28T19:53:36.842Z,72.80
2022-09-28T19:56:07.681Z,73.30
2022-09-28T19:58:36.761Z,73.60
2022-09-28T20:01:07.008Z,73.70
2022-09-28T20:03:34.511Z,74.10
2022-09-28T20:06:01.962Z,74.40
2022-09-28T20:08:32.211Z,74.80
2022-09-28T20:11:01.548Z,75.20
2022-09-28T20:13:34.719Z,75.80
2022-09-28T20:16:14.358Z,76.40
2022-09-28T20:18:43.947Z,76.80
2022-09-28T20:21:18.156Z,76.90
2022-09-28T20:23:46.035Z,77.00
2022-09-28T20:26:14.092Z,77.10
2022-09-28T20:28:41.144Z,77.20
2022-09-28T20:31:11.981Z,77.40
2022-09-28T20:33:39.618Z,76.80
2022-09-28T20:36:08.198Z,75.90
2022-09-28T20:38:40.332Z,74.40
2022-09-28T20:41:11.035Z,73.80
2022-09-28T20:43:39.140Z,72.80
2022-09-28T20:46:10.617Z,72.30
2022-09-28T20:48:37.475Z,72.00
2022-09-28T20:51:10.229Z,72.00
2022-09-28T20:53:39.020Z,71.80
2022-09-28T20:56:19.993Z,72.00
2022-09-28T20:58:47.511Z,72.50
2022-09-28T21:01:18.030Z,72.50
2022-09-28T21:03:54.123Z,72.30
2022-09-28T21:06:22.633Z,72.00
2022-09-28T21:08:49.753Z,71.30
2022-09-28T21:11:23.537Z,70.80
2022-09-28T21:14:10.054Z,70.30
2022-09-28T21:16:39.980Z,69.90
2022-09-28T21:19:06.769Z,70.00
2022-09-28T21:21:33.533Z,69.80
2022-09-28T21:24:00.528Z,69.70
2022-09-28T21:26:31.422Z,69.80
2022-09-28T21:29:02.365Z,70.30
2022-09-28T21:31:32.593Z,70.90
2022-09-28T21:33:59.736Z,71.10
2022-09-28T21:36:26.552Z,71.20
2022-09-28T21:38:55.015Z,71.30
2022-09-28T21:41:22.239Z,71.30
2022-09-28T21:43:48.989Z,71.20
2022-09-28T21:46:16.013Z,71.40
2022-09-28T21:48:42.827Z,71.40
2022-09-28T21:51:17.090Z,71.60
2022-09-28T21:53:46.373Z,71.80
2022-09-28T21:56:13.164Z,72.00
2022-09-28T21:58:40.689Z,72.00
2022-09-28T22:01:15.415Z,72.10
2022-09-28T22:03:44.062Z,71.80
2022-09-28T22:06:11.532Z,71.70
2022-09-28T22:08:38.975Z,72.30
2022-09-28T22:11:06.399Z,73.30
2022-09-28T22:13:36.136Z,74.10
2022-09-28T22:16:03.129Z,74.50
2022-09-28T22:18:31.124Z,74.60
2022-09-28T22:21:02.757Z,74.70
2022-09-28T22:23:32.838Z,74.90
2022-09-28T22:26:09.815Z,75.00
2022-09-28T22:28:37.781Z,75.20
2022-09-28T22:31:05.097Z,75.20
2022-09-28T22:33:32.144Z,75.20
2022-09-28T22:36:01.097Z,75.80
2022-09-28T22:38:31.279Z,75.70
2022-09-28T22:40:58.319Z,75.00
2022-09-28T22:43:26.374Z,74.70
2022-09-28T22:46:16.570Z,74.60
2022-09-28T22:48:52.481Z,74.70
2022-09-28T22:51:19.979Z,74.90
2022-09-28T22:53:46.988Z,75.00
2022-09-28T22:56:18.425Z,74.70
2022-09-28T22:58:46.203Z,74.70
2022-09-28T23:01:29.727Z,75.00
2022-09-28T23:03:57.789Z,75.30
2022-09-28T23:06:26.505Z,75.40
2022-09-28T23:08:53.609Z,75.40
2022-09-28T23:11:22.912Z,75.70
2022-09-28T23:13:56.963Z,75.90
2022-09-28T23:16:27.186Z,75.90
2022-09-28T23:18:55.186Z,76.10
2022-09-28T23:21:24.371Z,76.30
2022-09-28T23:23:54.256Z,76.70
2022-09-28T23:26:24.354Z,77.10
2022-09-28T23:28:59.027Z,77.50
2022-09-28T23:31:28.396Z,77.80
2022-09-28T23:33:59.237Z,78.20
2022-09-28T23:36:26.542Z,78.50
2022-09-28T23:38:53.868Z,78.50
2022-09-28T23:41:20.807Z,78.70
2022-09-28T23:43:47.536Z,78.70
2022-09-28T23:46:18.424Z,78.70
2022-09-28T23:48:49.535Z,78.70
2022-09-28T23:51:16.329Z,78.80
2022-09-28T23:53:43.538Z,78.90
2022-09-28T23:56:10.733Z,79.00
2022-09-28T23:58:37.497Z,79.00
